Time;durP1;ratioP1;P1;durP2;ratioP2;P2;SDS_P1;SDS_P2;PMS_P1;PMS_P2;Temp;Humidity;BMP_temperature;BMP_pressure;BME280_temperature;BME280_humidity;BME280_pressure;Samples;Min_cycle;Max_cycle;Signal;HPM_P1;HPM_P2
2023/05/29 00:01:31;;;;;;;;;;;20.80;57.20;;;;;;10213211;28;92862;-71
2023/05/29 00:06:33;;;;;;;;;;;20.80;57.20;;;;;;10213583;28;94593;-70
2023/05/29 00:11:34;;;;;;;;;;;20.80;57.10;;;;;;10213781;28;92754;-71
2023/05/29 00:16:37;;;;;;;;;;;20.70;57.00;;;;;;10211944;28;93688;-71
2023/05/29 00:21:40;;;;;;;;;;;20.70;56.90;;;;;;10214272;28;93695;-70
2023/05/29 00:26:42;;;;;;;;;;;20.80;57.00;;;;;;10212102;28;93915;-71
2023/05/29 00:31:44;;;;;;;;;;;20.80;56.80;;;;;;10213047;28;94511;-70
2023/05/29 00:36:47;;;;;;;;;;;20.70;56.70;;;;;;10209365;28;96066;-70
2023/05/29 00:41:51;;;;;;;;;;;20.80;56.60;;;;;;10212776;28;94053;-70
2023/05/29 00:46:53;;;;;;;;;;;20.80;56.70;;;;;;10212561;28;92821;-70
2023/05/29 00:51:55;;;;;;;;;;;20.80;56.50;;;;;;10212315;28;94412;-71
2023/05/29 00:56:58;;;;;;;;;;;20.70;56.50;;;;;;10211278;28;94519;-70
2023/05/29 01:02:00;;;;;;;;;;;20.70;56.30;;;;;;10211853;28;92547;-71
2023/05/29 01:07:02;;;;;;;;;;;20.70;56.30;;;;;;10212259;28;94448;-71
2023/05/29 01:12:10;;;;;;;;;;;20.70;56.30;;;;;;10212843;28;93749;-71
2023/05/29 01:17:31;;;;;;;;;;;20.70;56.30;;;;;;10195092;28;93668;-71
2023/05/29 01:22:51;;;;;;;;;;;20.70;56.20;;;;;;10211074;28;93491;-71
2023/05/29 01:27:54;;;;;;;;;;;20.60;56.00;;;;;;10209018;28;95990;-71
2023/05/29 01:32:56;;;;;;;;;;;20.60;56.10;;;;;;10211320;28;94643;-70
2023/05/29 01:37:58;;;;;;;;;;;20.60;56.00;;;;;;10210596;28;94777;-70
2023/05/29 01:43:00;;;;;;;;;;;20.60;56.10;;;;;;10211590;28;94450;-71
2023/05/29 01:48:01;;;;;;;;;;;20.60;56.00;;;;;;10209616;28;93544;-71
2023/05/29 01:53:03;;;;;;;;;;;20.60;56.00;;;;;;10210726;28;93399;-71
2023/05/29 01:58:06;;;;;;;;;;;20.60;56.00;;;;;;10212350;28;94319;-71
2023/05/29 02:03:07;;;;;;;;;;;20.60;56.00;;;;;;10213337;28;93737;-70
2023/05/29 02:08:11;;;;;;;;;;;20.60;56.00;;;;;;10211199;28;93429;-70
2023/05/29 02:13:13;;;;;;;;;;;20.60;55.90;;;;;;10218435;28;93590;-70
2023/05/29 02:18:17;;;;;;;;;;;20.50;55.80;;;;;;10220099;28;95212;-70
2023/05/29 02:23:19;;;;;;;;;;;20.50;55.80;;;;;;10221427;28;94417;-70
2023/05/29 02:28:20;;;;;;;;;;;20.50;55.90;;;;;;10210325;28;92566;-71
2023/05/29 02:33:22;;;;;;;;;;;20.50;55.80;;;;;;10209772;28;93470;-70
2023/05/29 02:38:24;;;;;;;;;;;20.50;55.80;;;;;;10209091;28;94462;-70
2023/05/29 02:43:26;;;;;;;;;;;20.50;55.80;;;;;;10209354;28;93534;-70
2023/05/29 02:48:29;;;;;;;;;;;20.50;55.70;;;;;;10208144;28;93563;-71
2023/05/29 02:53:31;;;;;;;;;;;20.50;55.70;;;;;;10209757;28;93111;-71
2023/05/29 02:58:33;;;;;;;;;;;20.50;55.70;;;;;;10210034;28;94524;-71
2023/05/29 03:03:34;;;;;;;;;;;20.50;55.60;;;;;;10208520;28;93378;-71
2023/05/29 03:08:40;;;;;;;;;;;20.40;55.60;;;;;;10206109;28;95799;-70
2023/05/29 03:13:42;;;;;;;;;;;20.50;55.50;;;;;;10208666;28;94039;-70
2023/05/29 03:18:44;;;;;;;;;;;20.40;55.40;;;;;;10208995;28;93752;-71
2023/05/29 03:23:46;;;;;;;;;;;20.40;55.40;;;;;;10197895;28;94614;-70
2023/05/29 03:28:47;;;;;;;;;;;20.50;55.30;;;;;;10215434;28;94647;-70
2023/05/29 03:33:49;;;;;;;;;;;20.50;55.40;;;;;;10197486;28;93521;-70
2023/05/29 03:38:51;;;;;;;;;;;20.40;55.20;;;;;;10215444;28;93492;-71
2023/05/29 03:43:53;;;;;;;;;;;20.40;55.30;;;;;;10215391;28;92875;-71
2023/05/29 05:07:22;;;;;;;;;;;20.20;54.90;;;;;;10167859;28;95060;-72
2023/05/29 05:12:24;;;;;;;;;;;20.20;55.00;;;;;;10170903;28;94052;-72
2023/05/29 05:17:26;;;;;;;;;;;20.20;55.00;;;;;;10170165;28;93219;-72
2023/05/29 05:22:27;;;;;;;;;;;20.20;55.00;;;;;;10171832;28;94658;-71
2023/05/29 05:27:30;;;;;;;;;;;20.20;55.00;;;;;;10170355;28;94629;-71
2023/05/29 05:32:31;;;;;;;;;;;20.20;55.00;;;;;;10168929;28;93500;-71
2023/05/29 05:37:33;;;;;;;;;;;20.20;55.00;;;;;;10171490;28;94450;-72
2023/05/29 05:42:35;;;;;;;;;;;20.20;54.90;;;;;;10169466;28;92980;-72
2023/05/29 05:47:37;;;;;;;;;;;20.20;54.90;;;;;;10152111;28;95003;-72
2023/05/29 05:52:38;;;;;;;;;;;20.30;54.90;;;;;;10151913;28;93601;-71
2023/05/29 05:57:40;;;;;;;;;;;20.30;54.80;;;;;;10166878;28;96684;-71
2023/05/29 06:02:42;;;;;;;;;;;20.30;54.80;;;;;;10166691;28;93555;-71
2023/05/29 06:07:45;;;;;;;;;;;20.30;54.70;;;;;;10168696;28;94157;-73
2023/05/29 06:12:47;;;;;;;;;;;20.30;54.50;;;;;;10168230;28;94245;-71
2023/05/29 06:17:51;;;;;;;;;;;20.30;54.30;;;;;;10168109;28;93564;-71
2023/05/29 06:22:53;;;;;;;;;;;20.40;54.20;;;;;;10151574;28;93507;-72
2023/05/29 06:27:55;;;;;;;;;;;20.30;53.90;;;;;;10167878;28;93701;-71
2023/05/29 06:32:56;;;;;;;;;;;20.40;53.70;;;;;;10168402;28;93380;-72
2023/05/29 06:37:58;;;;;;;;;;;20.40;53.50;;;;;;10168363;28;93416;-72
2023/05/29 06:43:00;;;;;;;;;;;20.50;53.50;;;;;;10151563;28;94455;-72
2023/05/29 06:48:02;;;;;;;;;;;20.40;53.50;;;;;;10165237;28;95905;-72
2023/05/29 06:53:03;;;;;;;;;;;20.50;53.30;;;;;;10167532;28;93956;-72
2023/05/29 06:58:05;;;;;;;;;;;20.40;53.20;;;;;;10167397;28;94583;-72
2023/05/29 07:03:07;;;;;;;;;;;20.50;53.30;;;;;;10165808;28;93802;-72
2023/05/29 07:08:09;;;;;;;;;;;20.40;53.20;;;;;;10169763;28;93668;-71
2023/05/29 07:13:20;;;;;;;;;;;20.50;53.20;;;;;;10173583;28;93929;-71
2023/05/29 07:18:22;;;;;;;;;;;20.50;53.10;;;;;;10176746;28;92831;-72
2023/05/29 07:23:24;;;;;;;;;;;20.50;53.20;;;;;;10172331;28;92472;-72
2023/05/29 07:28:28;;;;;;;;;;;20.50;53.30;;;;;;10166966;28;93786;-72
2023/05/29 07:33:30;;;;;;;;;;;20.60;53.20;;;;;;10167940;28;94862;-72
2023/05/29 07:38:32;;;;;;;;;;;20.60;53.20;;;;;;10147015;28;95933;-72
2023/05/29 07:43:34;;;;;;;;;;;20.60;53.20;;;;;;10149923;28;93980;-71
2023/05/29 07:48:36;;;;;;;;;;;20.60;53.40;;;;;;10167405;28;94527;-73
2023/05/29 07:53:38;;;;;;;;;;;20.50;53.40;;;;;;10168040;28;97018;-72
2023/05/29 07:58:41;;;;;;;;;;;20.50;53.30;;;;;;10166381;28;93531;-72
2023/05/29 08:03:43;;;;;;;;;;;20.50;51.90;;;;;;10155237;28;93586;-73
2023/05/29 08:08:45;;;;;;;;;;;20.50;52.40;;;;;;10131604;28;93998;-72
2023/05/29 08:13:47;;;;;;;;;;;20.50;53.00;;;;;;10134157;28;93706;-71
2023/05/29 08:18:48;;;;;;;;;;;20.60;53.10;;;;;;10133187;28;93811;-72
2023/05/29 08:23:50;;;;;;;;;;;20.60;53.20;;;;;;10132387;28;94290;-72
2023/05/29 08:28:52;;;;;;;;;;;20.70;53.40;;;;;;10129432;28;95918;-70
2023/05/29 08:33:53;;;;;;;;;;;20.70;53.60;;;;;;10132945;28;94442;-73
2023/05/29 08:38:55;;;;;;;;;;;20.70;53.40;;;;;;10132693;28;94471;-72
2023/05/29 08:43:59;;;;;;;;;;;20.70;53.50;;;;;;10131806;28;93549;-73
2023/05/29 08:49:01;;;;;;;;;;;20.70;52.60;;;;;;10114491;28;92873;-72
2023/05/29 08:54:03;;;;;;;;;;;20.60;52.80;;;;;;10132241;28;94504;-72
2023/05/29 08:59:06;;;;;;;;;;;20.70;52.80;;;;;;10114137;28;94660;-71
2023/05/29 09:04:08;;;;;;;;;;;20.70;53.00;;;;;;10144667;28;92717;-71
2023/05/29 09:09:10;;;;;;;;;;;20.70;53.00;;;;;;10171328;28;94639;-71
2023/05/29 09:14:30;;;;;;;;;;;20.70;53.10;;;;;;10169836;28;93486;-71
2023/05/29 09:19:33;;;;;;;;;;;20.70;53.50;;;;;;10167357;28;96188;-71
2023/05/29 09:24:36;;;;;;;;;;;20.70;53.50;;;;;;10152917;28;94502;-71
2023/05/29 09:29:39;;;;;;;;;;;20.70;54.40;;;;;;10171219;28;95214;-71
2023/05/29 09:34:41;;;;;;;;;;;20.70;54.10;;;;;;10170402;28;94471;-71
2023/05/29 09:39:49;;;;;;;;;;;20.70;54.20;;;;;;10170094;28;95129;-71
2023/05/29 09:44:53;;;;;;;;;;;20.70;54.20;;;;;;10170787;28;94481;-72
2023/05/29 09:49:55;;;;;;;;;;;20.70;54.40;;;;;;10170868;28;94719;-71
2023/05/29 09:54:57;;;;;;;;;;;20.70;54.40;;;;;;10154697;28;91802;-71
2023/05/29 10:00:00;;;;;;;;;;;20.80;54.20;;;;;;10172141;28;94498;-72
2023/05/29 10:05:03;;;;;;;;;;;20.80;54.10;;;;;;10174079;28;94790;-71
2023/05/29 10:10:07;;;;;;;;;;;20.80;54.20;;;;;;10171867;28;97162;-73
2023/05/29 10:15:12;;;;;;;;;;;20.90;54.70;;;;;;10180915;28;93863;-73
2023/05/29 10:20:15;;;;;;;;;;;20.90;55.20;;;;;;10169513;28;95297;-74
2023/05/29 10:25:18;;;;;;;;;;;20.90;54.80;;;;;;10169002;28;94470;-74
2023/05/29 10:30:23;;;;;;;;;;;20.90;54.40;;;;;;10169633;28;94431;-74
2023/05/29 10:35:30;;;;;;;;;;;20.90;54.40;;;;;;10151676;28;92651;-73
2023/05/29 10:40:32;;;;;;;;;;;20.90;55.40;;;;;;10168398;28;93439;-73
2023/05/29 10:45:39;;;;;;;;;;;21.00;55.10;;;;;;10168858;28;92916;-72
2023/05/29 10:50:42;;;;;;;;;;;21.00;54.90;;;;;;10167815;28;93646;-72
2023/05/29 10:55:45;;;;;;;;;;;21.00;54.80;;;;;;10168010;28;93447;-71
2023/05/29 11:00:47;;;;;;;;;;;21.10;54.90;;;;;;10165844;28;96067;-68
2023/05/29 11:06:02;;;;;;;;;;;21.10;55.80;;;;;;10167754;28;94677;-69
2023/05/29 11:11:10;;;;;;;;;;;21.20;56.10;;;;;;10168598;28;94700;-69
2023/05/29 11:16:14;;;;;;;;;;;21.20;55.70;;;;;;10167969;28;93693;-71
2023/05/29 11:21:24;;;;;;;;;;;21.20;56.30;;;;;;10150921;28;114092;-72
2023/05/29 11:26:27;;;;;;;;;;;21.20;55.70;;;;;;10166546;28;93644;-70
2023/05/29 11:31:31;;;;;;;;;;;21.20;55.70;;;;;;10166880;28;93597;-68
2023/05/29 11:36:33;;;;;;;;;;;21.20;56.70;;;;;;10167854;28;93735;-70
2023/05/29 11:41:35;;;;;;;;;;;21.20;55.70;;;;;;10168960;28;93528;-70
2023/05/29 11:46:36;;;;;;;;;;;21.20;55.70;;;;;;10173994;28;94380;-70
2023/05/29 11:51:41;;;;;;;;;;;21.20;55.60;;;;;;10171329;28;96886;-70
2023/05/29 11:56:43;;;;;;;;;;;21.20;55.40;;;;;;10156639;28;94555;-72
2023/05/29 12:01:45;;;;;;;;;;;21.20;55.40;;;;;;10173096;28;93520;-72
2023/05/29 12:06:47;;;;;;;;;;;21.10;54.70;;;;;;10173104;28;93630;-72
2023/05/29 12:11:50;;;;;;;;;;;21.10;54.20;;;;;;10155579;28;93577;-73
2023/05/29 12:16:52;;;;;;;;;;;21.10;54.20;;;;;;10173160;28;94769;-72
2023/05/29 12:21:53;;;;;;;;;;;21.10;54.30;;;;;;10172614;28;94048;-72
2023/05/29 12:26:56;;;;;;;;;;;21.10;54.20;;;;;;10173455;28;93619;-72
2023/05/29 12:31:58;;;;;;;;;;;21.10;54.40;;;;;;10172607;28;93856;-72
2023/05/29 12:37:05;;;;;;;;;;;21.10;54.30;;;;;;10172602;28;93059;-72
2023/05/29 12:42:07;;;;;;;;;;;21.10;54.10;;;;;;10170035;28;95118;-72
2023/05/29 12:47:13;;;;;;;;;;;21.10;54.00;;;;;;10173137;28;94515;-73
2023/05/29 12:52:20;;;;;;;;;;;21.10;54.00;;;;;;10141821;28;93792;-72
2023/05/29 12:57:22;;;;;;;;;;;21.10;54.10;;;;;;10178380;28;94544;-72
2023/05/29 13:02:24;;;;;;;;;;;21.10;53.90;;;;;;10177898;28;93759;-72
2023/05/29 13:07:27;;;;;;;;;;;21.10;53.60;;;;;;10171987;28;93393;-72
2023/05/29 13:12:29;;;;;;;;;;;21.10;53.40;;;;;;10170589;28;93423;-72
2023/05/29 13:17:31;;;;;;;;;;;21.10;53.30;;;;;;10171333;28;92112;-72
2023/05/29 13:22:35;;;;;;;;;;;21.10;53.30;;;;;;10169923;28;94167;-72
2023/05/29 13:27:38;;;;;;;;;;;21.10;54.10;;;;;;10169766;28;93798;-71
2023/05/29 13:32:40;;;;;;;;;;;21.20;56.30;;;;;;10166878;28;96874;-69
2023/05/29 13:37:43;;;;;;;;;;;21.30;55.60;;;;;;10151958;28;93444;-71
2023/05/29 13:42:45;;;;;;;;;;;21.30;55.50;;;;;;10152358;28;94414;-70
2023/05/29 13:47:47;;;;;;;;;;;21.30;56.10;;;;;;10151188;28;93510;-71
2023/05/29 13:52:49;;;;;;;;;;;21.30;56.30;;;;;;10152556;28;94669;-71
2023/05/29 13:57:50;;;;;;;;;;;21.30;56.30;;;;;;10151289;28;94379;-70
2023/05/29 14:02:52;;;;;;;;;;;21.30;56.30;;;;;;10167520;28;93590;-70
2023/05/29 14:07:54;;;;;;;;;;;21.30;56.00;;;;;;10168702;28;92721;-70
2023/05/29 14:12:57;;;;;;;;;;;21.20;55.60;;;;;;10151005;28;94606;-70
2023/05/29 14:17:58;;;;;;;;;;;21.20;54.80;;;;;;10167769;28;93523;-71
2023/05/29 14:23:01;;;;;;;;;;;21.20;54.20;;;;;;10164494;28;96074;-70
2023/05/29 14:28:02;;;;;;;;;;;21.10;53.90;;;;;;10167595;28;93477;-70
2023/05/29 14:33:04;;;;;;;;;;;21.10;54.00;;;;;;10168242;28;93854;-70
2023/05/29 14:38:06;;;;;;;;;;;21.10;53.80;;;;;;10167774;28;93511;-70
2023/05/29 14:43:08;;;;;;;;;;;21.10;54.00;;;;;;10166569;28;93511;-70
2023/05/29 14:48:10;;;;;;;;;;;21.00;54.00;;;;;;10167051;28;94446;-70
2023/05/29 14:53:12;;;;;;;;;;;21.00;54.10;;;;;;10166960;28;92654;-70
2023/05/29 14:58:14;;;;;;;;;;;21.00;54.20;;;;;;10167422;28;92766;-70
2023/05/29 15:03:16;;;;;;;;;;;21.00;54.10;;;;;;10148871;28;93811;-70
2023/05/29 15:08:18;;;;;;;;;;;21.00;54.00;;;;;;10149259;28;94181;-70
2023/05/29 15:13:20;;;;;;;;;;;21.00;53.70;;;;;;10164260;28;96886;-70
2023/05/29 15:18:21;;;;;;;;;;;21.00;54.00;;;;;;10171000;28;93693;-70
2023/05/29 15:23:24;;;;;;;;;;;21.00;54.60;;;;;;10172814;28;94610;-70
2023/05/29 15:28:26;;;;;;;;;;;21.10;54.70;;;;;;10155674;28;93482;-70
2023/05/29 15:33:28;;;;;;;;;;;21.10;54.80;;;;;;10174087;28;94634;-70
2023/05/29 15:38:32;;;;;;;;;;;21.10;54.90;;;;;;10173688;28;93486;-70
2023/05/29 15:43:34;;;;;;;;;;;21.10;54.90;;;;;;10173538;28;93446;-70
2023/05/29 15:48:36;;;;;;;;;;;21.10;55.00;;;;;;10174563;28;92915;-70
2023/05/29 15:53:38;;;;;;;;;;;21.10;55.10;;;;;;10172390;28;93697;-70
2023/05/29 15:58:39;;;;;;;;;;;21.10;54.90;;;;;;10172444;28;94944;-70
2023/05/29 16:03:42;;;;;;;;;;;21.20;56.80;;;;;;10169494;28;95962;-68
2023/05/29 16:08:44;;;;;;;;;;;21.30;56.90;;;;;;10172275;28;93483;-68
2023/05/29 16:13:46;;;;;;;;;;;21.40;59.80;;;;;;10172042;28;94462;-68
2023/05/29 16:18:48;;;;;;;;;;;21.60;62.00;;;;;;10172007;28;94496;-70
2023/05/29 16:23:56;;;;;;;;;;;21.80;62.70;;;;;;10172097;28;94420;-69
2023/05/29 16:28:58;;;;;;;;;;;21.90;59.60;;;;;;10171053;28;94515;-69
2023/05/29 16:34:00;;;;;;;;;;;21.90;59.00;;;;;;10172146;28;93149;-69
2023/05/29 16:39:02;;;;;;;;;;;22.00;58.30;;;;;;10172435;28;92790;-69
2023/05/29 16:44:04;;;;;;;;;;;22.00;58.20;;;;;;10153726;28;93559;-68
2023/05/29 16:49:06;;;;;;;;;;;21.90;58.20;;;;;;10170587;28;94840;-70
2023/05/29 16:54:08;;;;;;;;;;;21.90;58.10;;;;;;10168785;28;97184;-69
2023/05/29 16:59:11;;;;;;;;;;;21.90;58.20;;;;;;10170029;28;93531;-70
2023/05/29 17:04:12;;;;;;;;;;;21.90;58.20;;;;;;10170897;28;93578;-69
2023/05/29 17:09:15;;;;;;;;;;;21.80;58.00;;;;;;10170436;28;94437;-69
2023/05/29 17:14:17;;;;;;;;;;;21.90;57.80;;;;;;10153069;28;93808;-69
2023/05/29 17:19:19;;;;;;;;;;;21.80;56.20;;;;;;10169296;28;93560;-69
2023/05/29 17:24:21;;;;;;;;;;;21.80;52.80;;;;;;10152167;28;93677;-69
2023/05/29 17:29:23;;;;;;;;;;;21.80;48.90;;;;;;10169987;28;93950;-68
2023/05/29 17:34:25;;;;;;;;;;;21.70;47.80;;;;;;10169057;28;94563;-69
2023/05/29 17:39:26;;;;;;;;;;;21.70;46.90;;;;;;10168140;28;93757;-69
2023/05/29 17:44:28;;;;;;;;;;;21.60;46.80;;;;;;10166091;28;95907;-69
2023/05/29 17:49:30;;;;;;;;;;;21.60;46.20;;;;;;10152064;28;94672;-70
2023/05/29 17:54:32;;;;;;;;;;;21.60;45.70;;;;;;10168801;28;92529;-69
2023/05/29 17:59:35;;;;;;;;;;;21.50;45.10;;;;;;10168506;28;92554;-71
2023/05/29 18:04:37;;;;;;;;;;;21.50;45.70;;;;;;10167126;28;93676;-69
2023/05/29 18:09:38;;;;;;;;;;;21.50;45.10;;;;;;10151097;28;94031;-70
2023/05/29 18:14:40;;;;;;;;;;;21.60;45.20;;;;;;10169225;28;94620;-70
2023/05/29 18:19:42;;;;;;;;;;;21.60;44.90;;;;;;10168603;28;92674;-70
2023/05/29 18:24:45;;;;;;;;;;;21.70;45.10;;;;;;10167840;28;95097;-69
2023/05/29 18:29:47;;;;;;;;;;;21.80;45.50;;;;;;10167627;28;93613;-70
2023/05/29 18:34:49;;;;;;;;;;;21.80;45.80;;;;;;10165458;28;96137;-70
2023/05/29 18:39:51;;;;;;;;;;;21.80;46.30;;;;;;10168699;28;94812;-70
2023/05/29 18:44:54;;;;;;;;;;;21.70;47.00;;;;;;10152161;28;93308;-70
2023/05/29 18:49:56;;;;;;;;;;;21.70;47.40;;;;;;10167421;28;92940;-70
2023/05/29 18:54:58;;;;;;;;;;;21.60;47.80;;;;;;10167476;28;94507;-69
2023/05/29 18:59:59;;;;;;;;;;;21.60;48.10;;;;;;10166390;28;93715;-69
2023/05/29 19:05:01;;;;;;;;;;;21.60;48.50;;;;;;10166030;28;93648;-69
2023/05/29 19:10:03;;;;;;;;;;;21.50;48.80;;;;;;10149885;28;92759;-70
2023/05/29 19:15:07;;;;;;;;;;;21.50;49.20;;;;;;10167139;28;93966;-70
2023/05/29 19:20:10;;;;;;;;;;;21.40;49.50;;;;;;10165216;28;93678;-71
2023/05/29 19:25:12;;;;;;;;;;;21.40;49.90;;;;;;10163920;28;96914;-70
2023/05/29 19:30:14;;;;;;;;;;;21.40;50.20;;;;;;10165592;28;93617;-70
2023/05/29 19:35:16;;;;;;;;;;;21.40;50.50;;;;;;10166063;28;93781;-70
2023/05/29 19:40:18;;;;;;;;;;;21.30;50.70;;;;;;10165475;28;93128;-70
2023/05/29 19:45:21;;;;;;;;;;;21.30;51.00;;;;;;10164674;28;93543;-70
2023/05/29 19:50:24;;;;;;;;;;;21.30;51.20;;;;;;10164917;28;94459;-70
2023/05/29 19:55:26;;;;;;;;;;;21.30;51.20;;;;;;10164761;28;92795;-70
2023/05/29 20:00:28;;;;;;;;;;;21.30;51.20;;;;;;10148047;28;92965;-70
2023/05/29 20:05:29;;;;;;;;;;;21.30;51.40;;;;;;10170485;28;93764;-70
2023/05/29 20:10:31;;;;;;;;;;;21.30;51.50;;;;;;10154157;28;94494;-71
2023/05/29 20:15:33;;;;;;;;;;;21.30;51.60;;;;;;10167329;28;95838;-70
2023/05/29 20:20:35;;;;;;;;;;;21.20;51.60;;;;;;10170793;28;93476;-70
2023/05/29 20:25:37;;;;;;;;;;;21.20;51.80;;;;;;10154381;28;94457;-70
2023/05/29 20:30:39;;;;;;;;;;;21.20;51.80;;;;;;10169505;28;93538;-70
2023/05/29 20:35:41;;;;;;;;;;;21.20;51.80;;;;;;10170632;28;94843;-70
2023/05/29 20:40:45;;;;;;;;;;;21.20;51.90;;;;;;10171150;28;94421;-69
2023/05/29 20:45:51;;;;;;;;;;;21.20;52.00;;;;;;10170258;28;93892;-70
2023/05/29 20:50:53;;;;;;;;;;;21.20;52.00;;;;;;10171103;28;92825;-69
2023/05/29 20:55:55;;;;;;;;;;;21.10;51.80;;;;;;10170483;28;93960;-70
2023/05/29 21:00:57;;;;;;;;;;;21.10;51.90;;;;;;10169783;28;94535;-69
2023/05/29 21:06:00;;;;;;;;;;;21.10;51.70;;;;;;10122519;28;96133;-69
2023/05/29 21:11:02;;;;;;;;;;;21.00;51.70;;;;;;10129536;28;93860;-69
2023/05/29 21:16:05;;;;;;;;;;;21.00;51.80;;;;;;10128839;28;93576;-69
2023/05/29 21:21:07;;;;;;;;;;;21.00;51.70;;;;;;10129986;28;93316;-69
2023/05/29 21:26:09;;;;;;;;;;;20.90;51.80;;;;;;10130069;28;94667;-69
2023/05/29 21:31:12;;;;;;;;;;;20.90;51.80;;;;;;10128918;28;93562;-69
2023/05/29 21:36:14;;;;;;;;;;;20.90;51.80;;;;;;10130139;28;93521;-69
2023/05/29 21:41:16;;;;;;;;;;;20.80;51.70;;;;;;10129969;28;93639;-69
2023/05/29 21:46:18;;;;;;;;;;;20.80;51.80;;;;;;10128933;28;93622;-69
2023/05/29 21:51:21;;;;;;;;;;;20.80;51.80;;;;;;10128429;28;94677;-69
2023/05/29 21:56:25;;;;;;;;;;;20.80;51.90;;;;;;10109422;28;96889;-69
2023/05/29 22:01:27;;;;;;;;;;;20.80;51.90;;;;;;10128534;28;93407;-69
2023/05/29 22:06:31;;;;;;;;;;;20.80;51.90;;;;;;10128239;28;93271;-69
2023/05/29 22:11:34;;;;;;;;;;;20.70;51.90;;;;;;10128644;28;94450;-69
2023/05/29 22:16:36;;;;;;;;;;;20.70;52.00;;;;;;10129049;28;94636;-70
2023/05/29 22:21:37;;;;;;;;;;;20.70;51.90;;;;;;10127644;28;94519;-69
2023/05/29 22:26:39;;;;;;;;;;;20.70;51.90;;;;;;10128359;28;95722;-69
2023/05/29 22:31:41;;;;;;;;;;;20.70;51.90;;;;;;10128719;28;93764;-69
2023/05/29 22:36:43;;;;;;;;;;;20.70;51.80;;;;;;10110819;28;94707;-69
2023/05/29 22:41:45;;;;;;;;;;;20.70;51.80;;;;;;10127377;28;94784;-69
2023/05/29 22:46:47;;;;;;;;;;;20.70;51.80;;;;;;10125498;28;96968;-69
2023/05/29 22:51:49;;;;;;;;;;;20.70;51.80;;;;;;10109847;28;93622;-69
2023/05/29 22:56:52;;;;;;;;;;;20.70;51.80;;;;;;10127438;28;93749;-69
2023/05/29 23:01:54;;;;;;;;;;;20.70;51.80;;;;;;10126593;28;94667;-69
2023/05/29 23:06:56;;;;;;;;;;;20.70;51.80;;;;;;10145606;28;93447;-69
2023/05/29 23:11:57;;;;;;;;;;;20.70;51.80;;;;;;10166567;28;94910;-69
2023/05/29 23:16:59;;;;;;;;;;;20.60;51.80;;;;;;10148669;28;94245;-68
2023/05/29 23:22:01;;;;;;;;;;;20.60;52.80;;;;;;10168168;28;92769;-69
2023/05/29 23:27:03;;;;;;;;;;;20.60;51.80;;;;;;10165644;28;93324;-69
2023/05/29 23:32:06;;;;;;;;;;;20.60;51.80;;;;;;10148274;28;94771;-69
2023/05/29 23:37:09;;;;;;;;;;;20.60;51.80;;;;;;10165699;28;95908;-69
2023/05/29 23:42:11;;;;;;;;;;;20.60;51.80;;;;;;10155880;28;94503;-69
2023/05/29 23:47:13;;;;;;;;;;;20.60;51.90;;;;;;10172655;28;93677;-69
2023/05/29 23:52:15;;;;;;;;;;;20.50;51.90;;;;;;10172448;28;92867;-69
2023/05/29 23:57:17;;;;;;;;;;;20.50;51.90;;;;;;10172125;28;93542;-68
